sensor_id;sensor_type;location;lat;lon;timestamp;temperature;humidity
63445;DHT22;49573;47.682;9.170;2022-12-18T00:00:22;-3274.70;78.80
63445;DHT22;49573;47.682;9.170;2022-12-18T00:03:09;-3274.70;78.80
63445;DHT22;49573;47.682;9.170;2022-12-18T00:05:56;-3274.70;79.00
63445;DHT22;49573;47.682;9.170;2022-12-18T00:08:43;-3274.60;78.80
63445;DHT22;49573;47.682;9.170;2022-12-18T00:11:31;-3274.60;79.20
63445;DHT22;49573;47.682;9.170;2022-12-18T00:14:17;-3274.60;79.20
63445;DHT22;49573;47.682;9.170;2022-12-18T00:17:03;-3274.70;79.20
63445;DHT22;49573;47.682;9.170;2022-12-18T00:19:49;-3274.80;78.60
63445;DHT22;49573;47.682;9.170;2022-12-18T00:22:37;-3274.80;78.80
63445;DHT22;49573;47.682;9.170;2022-12-18T00:25:23;-3274.90;78.90
63445;DHT22;49573;47.682;9.170;2022-12-18T00:28:09;-3274.80;78.90
63445;DHT22;49573;47.682;9.170;2022-12-18T00:31:00;-3274.90;79.00
63445;DHT22;49573;47.682;9.170;2022-12-18T00:33:47;-3274.80;78.90
63445;DHT22;49573;47.682;9.170;2022-12-18T00:36:34;-3274.90;78.80
63445;DHT22;49573;47.682;9.170;2022-12-18T00:39:21;-3274.90;78.90
63445;DHT22;49573;47.682;9.170;2022-12-18T00:42:08;-3274.80;79.00
63445;DHT22;49573;47.682;9.170;2022-12-18T00:45:14;-3274.90;79.20
63445;DHT22;49573;47.682;9.170;2022-12-18T00:48:00;-3274.90;78.90
63445;DHT22;49573;47.682;9.170;2022-12-18T00:50:48;-3274.80;79.10
63445;DHT22;49573;47.682;9.170;2022-12-18T00:53:34;-3274.80;79.10
63445;DHT22;49573;47.682;9.170;2022-12-18T00:56:22;-3274.70;79.50
63445;DHT22;49573;47.682;9.170;2022-12-18T00:59:08;-3274.70;79.10
63445;DHT22;49573;47.682;9.170;2022-12-18T01:01:54;-3274.70;79.40
63445;DHT22;49573;47.682;9.170;2022-12-18T01:04:40;-3274.80;79.20
63445;DHT22;49573;47.682;9.170;2022-12-18T01:07:26;-3274.80;79.40
63445;DHT22;49573;47.682;9.170;2022-12-18T01:10:13;-3274.80;79.40
63445;DHT22;49573;47.682;9.170;2022-12-18T01:13:00;-3274.80;79.40
63445;DHT22;49573;47.682;9.170;2022-12-18T01:15:48;-3274.90;79.30
63445;DHT22;49573;47.682;9.170;2022-12-18T01:18:35;-3274.90;79.10
63445;DHT22;49573;47.682;9.170;2022-12-18T01:21:22;-3274.90;78.50
63445;DHT22;49573;47.682;9.170;2022-12-18T01:24:12;-3274.90;79.10
63445;DHT22;49573;47.682;9.170;2022-12-18T01:26:58;-3274.90;79.00
63445;DHT22;49573;47.682;9.170;2022-12-18T01:29:45;-3274.80;78.90
63445;DHT22;49573;47.682;9.170;2022-12-18T01:32:31;-3274.90;78.80
63445;DHT22;49573;47.682;9.170;2022-12-18T01:35:18;-3274.80;79.10
63445;DHT22;49573;47.682;9.170;2022-12-18T01:38:04;-3274.60;79.40
63445;DHT22;49573;47.682;9.170;2022-12-18T01:40:57;-3274.70;79.60
63445;DHT22;49573;47.682;9.170;2022-12-18T01:43:49;-3274.80;79.40
63445;DHT22;49573;47.682;9.170;2022-12-18T01:46:37;-3274.80;79.20
63445;DHT22;49573;47.682;9.170;2022-12-18T01:49:23;-3274.80;79.30
63445;DHT22;49573;47.682;9.170;2022-12-18T01:52:09;-3274.80;79.40
63445;DHT22;49573;47.682;9.170;2022-12-18T01:54:55;-3274.80;79.60
63445;DHT22;49573;47.682;9.170;2022-12-18T01:57:42;-3274.90;79.30
63445;DHT22;49573;47.682;9.170;2022-12-18T02:00:28;-3274.90;79.30
63445;DHT22;49573;47.682;9.170;2022-12-18T02:03:16;-3274.90;79.10
63445;DHT22;49573;47.682;9.170;2022-12-18T02:06:10;-3274.90;79.20
63445;DHT22;49573;47.682;9.170;2022-12-18T02:09:03;-3274.80;79.20
63445;DHT22;49573;47.682;9.170;2022-12-18T02:11:59;-3274.90;79.10
63445;DHT22;49573;47.682;9.170;2022-12-18T02:14:57;-3274.90;79.30
63445;DHT22;49573;47.682;9.170;2022-12-18T02:17:52;-3274.90;79.60
63445;DHT22;49573;47.682;9.170;2022-12-18T02:20:47;-3275.00;79.60
63445;DHT22;49573;47.682;9.170;2022-12-18T02:23:47;-3275.00;79.80
63445;DHT22;49573;47.682;9.170;2022-12-18T02:26:41;-3275.00;80.20
63445;DHT22;49573;47.682;9.170;2022-12-18T02:29:34;-3275.00;80.10
63445;DHT22;49573;47.682;9.170;2022-12-18T02:32:26;-3274.90;80.00
63445;DHT22;49573;47.682;9.170;2022-12-18T02:35:16;-3275.00;79.90
63445;DHT22;49573;47.682;9.170;2022-12-18T02:38:03;-3275.00;80.00
63445;DHT22;49573;47.682;9.170;2022-12-18T02:40:50;-3275.00;80.20
63445;DHT22;49573;47.682;9.170;2022-12-18T02:43:42;-3275.00;80.10
63445;DHT22;49573;47.682;9.170;2022-12-18T02:46:34;-3275.00;80.10
63445;DHT22;49573;47.682;9.170;2022-12-18T02:49:26;-3275.10;79.90
63445;DHT22;49573;47.682;9.170;2022-12-18T02:52:24;-3275.10;80.10
63445;DHT22;49573;47.682;9.170;2022-12-18T02:55:22;-3275.10;80.10
63445;DHT22;49573;47.682;9.170;2022-12-18T02:58:15;-3274.90;79.60
63445;DHT22;49573;47.682;9.170;2022-12-18T03:01:09;-3274.90;79.80
63445;DHT22;49573;47.682;9.170;2022-12-18T03:04:01;-3275.00;80.00
63445;DHT22;49573;47.682;9.170;2022-12-18T03:06:54;-3275.00;79.90
63445;DHT22;49573;47.682;9.170;2022-12-18T03:09:45;-3274.90;79.30
63445;DHT22;49573;47.682;9.170;2022-12-18T03:12:36;-3274.70;79.50
63445;DHT22;49573;47.682;9.170;2022-12-18T03:15:27;-3274.80;80.00
63445;DHT22;49573;47.682;9.170;2022-12-18T03:18:18;-3274.70;80.20
63445;DHT22;49573;47.682;9.170;2022-12-18T03:21:06;-3274.70;80.20
63445;DHT22;49573;47.682;9.170;2022-12-18T03:23:53;-3274.80;79.90
63445;DHT22;49573;47.682;9.170;2022-12-18T03:26:44;-3274.70;79.80
63445;DHT22;49573;47.682;9.170;2022-12-18T03:29:33;-3274.70;80.20
63445;DHT22;49573;47.682;9.170;2022-12-18T03:32:24;-3274.60;80.50
63445;DHT22;49573;47.682;9.170;2022-12-18T03:35:17;-3274.60;80.80
63445;DHT22;49573;47.682;9.170;2022-12-18T03:38:04;-3274.60;80.80
63445;DHT22;49573;47.682;9.170;2022-12-18T03:40:58;-3274.60;80.70
63445;DHT22;49573;47.682;9.170;2022-12-18T03:43:50;-3274.50;80.80
63445;DHT22;49573;47.682;9.170;2022-12-18T03:46:42;-3274.50;81.10
63445;DHT22;49573;47.682;9.170;2022-12-18T03:49:35;-3274.60;80.80
63445;DHT22;49573;47.682;9.170;2022-12-18T03:52:27;-3274.60;81.20
63445;DHT22;49573;47.682;9.170;2022-12-18T03:55:15;-3274.60;80.90
63445;DHT22;49573;47.682;9.170;2022-12-18T03:58:04;-3274.50;81.10
63445;DHT22;49573;47.682;9.170;2022-12-18T04:00:55;-3274.60;81.40
63445;DHT22;49573;47.682;9.170;2022-12-18T04:03:43;-3274.60;81.10
63445;DHT22;49573;47.682;9.170;2022-12-18T04:06:30;-3274.60;81.20
63445;DHT22;49573;47.682;9.170;2022-12-18T04:09:19;-3274.60;81.10
63445;DHT22;49573;47.682;9.170;2022-12-18T04:12:06;-3274.60;80.70
63445;DHT22;49573;47.682;9.170;2022-12-18T04:14:52;-3274.60;80.90
63445;DHT22;49573;47.682;9.170;2022-12-18T04:17:39;-3274.60;81.00
63445;DHT22;49573;47.682;9.170;2022-12-18T04:20:29;-3274.50;81.00
63445;DHT22;49573;47.682;9.170;2022-12-18T04:23:15;-3274.50;81.10
63445;DHT22;49573;47.682;9.170;2022-12-18T04:26:02;-3274.50;81.30
63445;DHT22;49573;47.682;9.170;2022-12-18T04:28:48;-3274.50;81.30
63445;DHT22;49573;47.682;9.170;2022-12-18T04:31:34;-3274.50;81.40
63445;DHT22;49573;47.682;9.170;2022-12-18T04:34:21;-3274.50;81.10
63445;DHT22;49573;47.682;9.170;2022-12-18T04:37:07;-3274.50;80.90
63445;DHT22;49573;47.682;9.170;2022-12-18T04:39:54;-3274.40;81.20
63445;DHT22;49573;47.682;9.170;2022-12-18T04:42:41;-3274.50;81.30
63445;DHT22;49573;47.682;9.170;2022-12-18T04:45:27;-3274.40;81.50
63445;DHT22;49573;47.682;9.170;2022-12-18T04:48:13;-3274.50;81.60
63445;DHT22;49573;47.682;9.170;2022-12-18T04:50:59;-3274.40;81.30
63445;DHT22;49573;47.682;9.170;2022-12-18T04:53:45;-3274.40;81.70
63445;DHT22;49573;47.682;9.170;2022-12-18T04:56:32;-3274.40;81.50
63445;DHT22;49573;47.682;9.170;2022-12-18T04:59:20;-3274.50;81.70
63445;DHT22;49573;47.682;9.170;2022-12-18T05:02:06;-3274.40;81.00
63445;DHT22;49573;47.682;9.170;2022-12-18T05:04:52;-3274.40;81.00
63445;DHT22;49573;47.682;9.170;2022-12-18T05:07:38;-3274.60;80.70
63445;DHT22;49573;47.682;9.170;2022-12-18T05:10:24;-3274.50;80.40
63445;DHT22;49573;47.682;9.170;2022-12-18T05:13:11;-3274.60;80.00
63445;DHT22;49573;47.682;9.170;2022-12-18T05:15:58;-3274.60;80.00
63445;DHT22;49573;47.682;9.170;2022-12-18T05:18:44;-3274.70;80.00
63445;DHT22;49573;47.682;9.170;2022-12-18T05:21:30;-3274.70;80.00
63445;DHT22;49573;47.682;9.170;2022-12-18T05:24:16;-3274.80;80.10
63445;DHT22;49573;47.682;9.170;2022-12-18T05:27:02;-3274.80;80.10
63445;DHT22;49573;47.682;9.170;2022-12-18T05:29:49;-3274.80;79.80
63445;DHT22;49573;47.682;9.170;2022-12-18T05:32:36;-3274.80;79.90
63445;DHT22;49573;47.682;9.170;2022-12-18T05:35:22;-3274.90;79.90
63445;DHT22;49573;47.682;9.170;2022-12-18T05:38:08;-3274.90;80.00
63445;DHT22;49573;47.682;9.170;2022-12-18T05:40:55;-3274.90;80.00
63445;DHT22;49573;47.682;9.170;2022-12-18T05:43:41;-3274.90;80.40
63445;DHT22;49573;47.682;9.170;2022-12-18T05:46:28;-3274.90;80.30
63445;DHT22;49573;47.682;9.170;2022-12-18T05:49:16;-3275.00;80.10
63445;DHT22;49573;47.682;9.170;2022-12-18T05:52:02;-3275.00;80.30
63445;DHT22;49573;47.682;9.170;2022-12-18T05:54:48;-3275.00;80.50
63445;DHT22;49573;47.682;9.170;2022-12-18T05:57:34;-3275.00;80.70
63445;DHT22;49573;47.682;9.170;2022-12-18T06:00:21;-3275.00;80.60
63445;DHT22;49573;47.682;9.170;2022-12-18T06:03:07;-3275.10;80.70
63445;DHT22;49573;47.682;9.170;2022-12-18T06:05:54;-3275.10;80.60
63445;DHT22;49573;47.682;9.170;2022-12-18T06:08:40;-3275.10;80.70
63445;DHT22;49573;47.682;9.170;2022-12-18T06:11:27;-3275.10;80.70
63445;DHT22;49573;47.682;9.170;2022-12-18T06:14:13;-3275.10;80.70
63445;DHT22;49573;47.682;9.170;2022-12-18T06:16:59;-3275.10;80.60
63445;DHT22;49573;47.682;9.170;2022-12-18T06:19:45;-3275.10;80.90
63445;DHT22;49573;47.682;9.170;2022-12-18T06:22:33;-3275.20;80.70
63445;DHT22;49573;47.682;9.170;2022-12-18T06:25:20;-3275.20;80.60
63445;DHT22;49573;47.682;9.170;2022-12-18T06:28:06;-3275.20;80.00
63445;DHT22;49573;47.682;9.170;2022-12-18T06:30:52;-3275.30;80.00
63445;DHT22;49573;47.682;9.170;2022-12-18T06:33:39;-3275.30;80.20
63445;DHT22;49573;47.682;9.170;2022-12-18T06:36:25;-3275.30;80.10
63445;DHT22;49573;47.682;9.170;2022-12-18T06:39:13;-3275.20;80.00
63445;DHT22;49573;47.682;9.170;2022-12-18T06:41:59;-3275.20;79.70
63445;DHT22;49573;47.682;9.170;2022-12-18T06:44:45;-3275.30;79.70
63445;DHT22;49573;47.682;9.170;2022-12-18T06:47:31;-3275.30;80.20
63445;DHT22;49573;47.682;9.170;2022-12-18T06:50:17;-3275.30;80.50
63445;DHT22;49573;47.682;9.170;2022-12-18T06:53:03;-3275.40;80.20
63445;DHT22;49573;47.682;9.170;2022-12-18T06:55:50;-3275.30;80.60
63445;DHT22;49573;47.682;9.170;2022-12-18T06:58:37;-3275.30;80.70
63445;DHT22;49573;47.682;9.170;2022-12-18T07:01:23;-3275.30;80.60
63445;DHT22;49573;47.682;9.170;2022-12-18T07:04:09;-3275.40;80.30
63445;DHT22;49573;47.682;9.170;2022-12-18T07:06:55;-3275.40;80.50
63445;DHT22;49573;47.682;9.170;2022-12-18T07:09:41;-3275.30;80.60
63445;DHT22;49573;47.682;9.170;2022-12-18T07:12:28;-3275.40;80.60
63445;DHT22;49573;47.682;9.170;2022-12-18T07:15:15;-3275.40;80.60
63445;DHT22;49573;47.682;9.170;2022-12-18T07:18:01;-3275.40;80.70
63445;DHT22;49573;47.682;9.170;2022-12-18T07:20:47;-3275.40;80.80
63445;DHT22;49573;47.682;9.170;2022-12-18T07:23:34;-3275.30;80.80
63445;DHT22;49573;47.682;9.170;2022-12-18T07:26:21;-3275.40;80.90
63445;DHT22;49573;47.682;9.170;2022-12-18T07:29:09;-3275.40;81.00
63445;DHT22;49573;47.682;9.170;2022-12-18T07:31:55;-3275.30;80.60
63445;DHT22;49573;47.682;9.170;2022-12-18T07:34:41;-3275.20;80.70
63445;DHT22;49573;47.682;9.170;2022-12-18T07:37:27;-3275.20;80.70
63445;DHT22;49573;47.682;9.170;2022-12-18T07:40:14;-3275.30;80.60
63445;DHT22;49573;47.682;9.170;2022-12-18T07:43:00;-3275.30;80.60
63445;DHT22;49573;47.682;9.170;2022-12-18T07:45:49;-3275.20;80.40
63445;DHT22;49573;47.682;9.170;2022-12-18T07:48:35;-3275.30;80.60
63445;DHT22;49573;47.682;9.170;2022-12-18T07:51:21;-3275.30;80.40
63445;DHT22;49573;47.682;9.170;2022-12-18T07:54:07;-3275.40;80.40
63445;DHT22;49573;47.682;9.170;2022-12-18T07:56:54;-3275.40;80.50
63445;DHT22;49573;47.682;9.170;2022-12-18T07:59:40;-3275.30;80.40
63445;DHT22;49573;47.682;9.170;2022-12-18T08:02:30;-3275.30;80.40
63445;DHT22;49573;47.682;9.170;2022-12-18T08:05:16;-3275.30;80.40
63445;DHT22;49573;47.682;9.170;2022-12-18T08:08:02;-3275.40;80.40
63445;DHT22;49573;47.682;9.170;2022-12-18T08:10:49;-3275.40;80.20
63445;DHT22;49573;47.682;9.170;2022-12-18T08:13:35;-3275.40;80.30
63445;DHT22;49573;47.682;9.170;2022-12-18T08:16:21;-3275.40;80.40
63445;DHT22;49573;47.682;9.170;2022-12-18T08:19:09;-3275.40;80.30
63445;DHT22;49573;47.682;9.170;2022-12-18T08:21:55;-3275.50;80.20
63445;DHT22;49573;47.682;9.170;2022-12-18T08:24:42;-3275.40;80.30
63445;DHT22;49573;47.682;9.170;2022-12-18T08:27:28;-3275.30;80.60
63445;DHT22;49573;47.682;9.170;2022-12-18T08:30:15;-3275.40;80.50
63445;DHT22;49573;47.682;9.170;2022-12-18T08:33:01;-3275.30;80.50
63445;DHT22;49573;47.682;9.170;2022-12-18T08:35:49;-3275.40;80.50
63445;DHT22;49573;47.682;9.170;2022-12-18T08:38:35;-3275.50;80.60
63445;DHT22;49573;47.682;9.170;2022-12-18T08:41:21;-3275.40;80.80
63445;DHT22;49573;47.682;9.170;2022-12-18T08:44:08;-3275.50;80.70
63445;DHT22;49573;47.682;9.170;2022-12-18T08:47:13;-3275.50;80.70
63445;DHT22;49573;47.682;9.170;2022-12-18T08:49:59;-3275.50;80.70
63445;DHT22;49573;47.682;9.170;2022-12-18T08:52:46;-3275.50;80.60
63445;DHT22;49573;47.682;9.170;2022-12-18T08:55:32;-3275.50;80.80
63445;DHT22;49573;47.682;9.170;2022-12-18T08:58:19;-3275.60;80.50
63445;DHT22;49573;47.682;9.170;2022-12-18T09:01:07;-3275.50;80.50
63445;DHT22;49573;47.682;9.170;2022-12-18T09:03:54;-3275.50;80.80
63445;DHT22;49573;47.682;9.170;2022-12-18T09:06:40;-3275.60;80.70
63445;DHT22;49573;47.682;9.170;2022-12-18T09:09:28;-3275.60;80.70
63445;DHT22;49573;47.682;9.170;2022-12-18T09:12:14;-3275.60;80.70
63445;DHT22;49573;47.682;9.170;2022-12-18T09:15:00;-3275.60;80.40
63445;DHT22;49573;47.682;9.170;2022-12-18T09:17:46;-3275.70;80.50
63445;DHT22;49573;47.682;9.170;2022-12-18T09:20:33;-3275.60;80.30
63445;DHT22;49573;47.682;9.170;2022-12-18T09:23:20;-3275.70;80.50
63445;DHT22;49573;47.682;9.170;2022-12-18T09:26:07;-3275.60;80.30
63445;DHT22;49573;47.682;9.170;2022-12-18T09:28:53;-3275.70;80.30
63445;DHT22;49573;47.682;9.170;2022-12-18T09:31:40;-3275.70;79.90
63445;DHT22;49573;47.682;9.170;2022-12-18T09:34:26;-3275.80;79.90
63445;DHT22;49573;47.682;9.170;2022-12-18T09:37:12;-3275.90;79.60
63445;DHT22;49573;47.682;9.170;2022-12-18T09:39:58;-3275.90;79.80
63445;DHT22;49573;47.682;9.170;2022-12-18T09:42:48;-3275.80;79.60
63445;DHT22;49573;47.682;9.170;2022-12-18T09:45:41;-3275.80;79.80
63445;DHT22;49573;47.682;9.170;2022-12-18T09:48:32;-3275.80;80.00
63445;DHT22;49573;47.682;9.170;2022-12-18T09:51:22;-3275.90;79.80
63445;DHT22;49573;47.682;9.170;2022-12-18T09:54:14;-3275.80;79.60
63445;DHT22;49573;47.682;9.170;2022-12-18T09:57:01;-3276.00;79.80
63445;DHT22;49573;47.682;9.170;2022-12-18T09:59:54;-3276.10;79.70
63445;DHT22;49573;47.682;9.170;2022-12-18T10:02:41;-3276.10;80.00
63445;DHT22;49573;47.682;9.170;2022-12-18T10:05:34;-3276.00;79.60
63445;DHT22;49573;47.682;9.170;2022-12-18T10:08:28;-3276.00;79.80
63445;DHT22;49573;47.682;9.170;2022-12-18T10:11:32;-3276.10;79.50
63445;DHT22;49573;47.682;9.170;2022-12-18T10:14:24;-3276.00;79.20
63445;DHT22;49573;47.682;9.170;2022-12-18T10:17:22;-3275.90;79.50
63445;DHT22;49573;47.682;9.170;2022-12-18T10:20:16;-3275.90;79.90
63445;DHT22;49573;47.682;9.170;2022-12-18T10:23:10;-3276.00;79.60
63445;DHT22;49573;47.682;9.170;2022-12-18T10:26:03;-3275.90;80.10
63445;DHT22;49573;47.682;9.170;2022-12-18T10:28:49;-3275.90;79.70
63445;DHT22;49573;47.682;9.170;2022-12-18T10:31:37;-3275.90;79.80
63445;DHT22;49573;47.682;9.170;2022-12-18T10:34:25;-3275.90;79.40
63445;DHT22;49573;47.682;9.170;2022-12-18T10:37:15;-3275.90;79.70
63445;DHT22;49573;47.682;9.170;2022-12-18T10:40:11;-3275.90;79.50
63445;DHT22;49573;47.682;9.170;2022-12-18T10:43:09;-3275.80;79.50
63445;DHT22;49573;47.682;9.170;2022-12-18T10:46:00;-3275.80;79.80
63445;DHT22;49573;47.682;9.170;2022-12-18T10:48:53;-3275.70;80.50
63445;DHT22;49573;47.682;9.170;2022-12-18T10:51:41;-3275.90;80.20
63445;DHT22;49573;47.682;9.170;2022-12-18T10:54:33;-3275.80;80.10
63445;DHT22;49573;47.682;9.170;2022-12-18T10:57:32;-3275.70;80.00
63445;DHT22;49573;47.682;9.170;2022-12-18T11:00:25;-3275.80;80.30
63445;DHT22;49573;47.682;9.170;2022-12-18T11:03:30;-3275.70;80.30
63445;DHT22;49573;47.682;9.170;2022-12-18T11:06:19;-3275.70;79.80
63445;DHT22;49573;47.682;9.170;2022-12-18T11:09:20;-3275.90;80.00
63445;DHT22;49573;47.682;9.170;2022-12-18T11:12:20;-3275.90;79.80
63445;DHT22;49573;47.682;9.170;2022-12-18T11:15:15;-3275.90;79.40
63445;DHT22;49573;47.682;9.170;2022-12-18T11:18:04;-3275.90;79.50
63445;DHT22;49573;47.682;9.170;2022-12-18T11:20:52;-3275.80;79.40
63445;DHT22;49573;47.682;9.170;2022-12-18T11:23:46;-3275.60;79.90
63445;DHT22;49573;47.682;9.170;2022-12-18T11:26:35;-3275.70;80.00
63445;DHT22;49573;47.682;9.170;2022-12-18T11:29:27;-3275.70;80.20
63445;DHT22;49573;47.682;9.170;2022-12-18T11:32:28;-3275.80;80.30
63445;DHT22;49573;47.682;9.170;2022-12-18T11:35:19;-3275.70;79.80
63445;DHT22;49573;47.682;9.170;2022-12-18T11:38:14;-3275.90;80.00
63445;DHT22;49573;47.682;9.170;2022-12-18T11:41:06;-3275.80;80.10
63445;DHT22;49573;47.682;9.170;2022-12-18T11:43:58;-3275.90;80.00
63445;DHT22;49573;47.682;9.170;2022-12-18T11:46:47;-3275.90;79.60
63445;DHT22;49573;47.682;9.170;2022-12-18T11:49:35;-3275.70;79.50
63445;DHT22;49573;47.682;9.170;2022-12-18T11:52:24;-3275.80;79.60
63445;DHT22;49573;47.682;9.170;2022-12-18T11:55:13;-3275.90;79.90
63445;DHT22;49573;47.682;9.170;2022-12-18T11:58:07;-3276.00;79.40
63445;DHT22;49573;47.682;9.170;2022-12-18T12:01:07;-3275.90;79.70
63445;DHT22;49573;47.682;9.170;2022-12-18T12:04:27;-3275.90;79.70
63445;DHT22;49573;47.682;9.170;2022-12-18T12:07:23;-3275.70;80.00
63445;DHT22;49573;47.682;9.170;2022-12-18T12:10:25;-3275.80;80.30
63445;DHT22;49573;47.682;9.170;2022-12-18T12:13:23;-3275.60;80.20
63445;DHT22;49573;47.682;9.170;2022-12-18T12:16:21;-3275.60;80.40
63445;DHT22;49573;47.682;9.170;2022-12-18T12:19:20;-3275.60;80.70
63445;DHT22;49573;47.682;9.170;2022-12-18T12:22:13;-3275.50;80.10
63445;DHT22;49573;47.682;9.170;2022-12-18T12:25:13;-3275.60;80.30
63445;DHT22;49573;47.682;9.170;2022-12-18T12:28:15;-3275.50;80.50
63445;DHT22;49573;47.682;9.170;2022-12-18T12:31:09;-3275.40;80.90
63445;DHT22;49573;47.682;9.170;2022-12-18T12:34:07;-3275.50;81.10
63445;DHT22;49573;47.682;9.170;2022-12-18T12:37:11;-3275.50;80.90
63445;DHT22;49573;47.682;9.170;2022-12-18T12:40:02;-3275.40;80.90
63445;DHT22;49573;47.682;9.170;2022-12-18T12:42:49;-3275.40;81.60
63445;DHT22;49573;47.682;9.170;2022-12-18T12:46:03;-3275.30;81.40
63445;DHT22;49573;47.682;9.170;2022-12-18T12:48:52;-3275.60;80.80
63445;DHT22;49573;47.682;9.170;2022-12-18T12:51:42;-3275.60;80.80
63445;DHT22;49573;47.682;9.170;2022-12-18T12:54:32;-3275.60;80.60
63445;DHT22;49573;47.682;9.170;2022-12-18T12:57:21;-3275.60;80.60
63445;DHT22;49573;47.682;9.170;2022-12-18T13:00:12;-3275.60;80.70
63445;DHT22;49573;47.682;9.170;2022-12-18T13:03:03;-3275.60;80.90
63445;DHT22;49573;47.682;9.170;2022-12-18T13:05:56;-3275.60;81.10
63445;DHT22;49573;47.682;9.170;2022-12-18T13:08:57;-3275.60;81.40
63445;DHT22;49573;47.682;9.170;2022-12-18T13:11:44;-3275.60;81.30
63445;DHT22;49573;47.682;9.170;2022-12-18T13:14:49;-3275.70;80.80
63445;DHT22;49573;47.682;9.170;2022-12-18T13:17:35;-3275.70;80.60
63445;DHT22;49573;47.682;9.170;2022-12-18T13:20:21;-3275.60;80.70
63445;DHT22;49573;47.682;9.170;2022-12-18T13:23:33;-3275.70;80.60
63445;DHT22;49573;47.682;9.170;2022-12-18T13:26:31;-3275.80;80.50
63445;DHT22;49573;47.682;9.170;2022-12-18T13:32:37;-3275.80;80.40
63445;DHT22;49573;47.682;9.170;2022-12-18T13:35:41;-3275.80;81.20
63445;DHT22;49573;47.682;9.170;2022-12-18T13:38:33;-3275.90;80.70
63445;DHT22;49573;47.682;9.170;2022-12-18T13:41:25;-3276.00;80.60
63445;DHT22;49573;47.682;9.170;2022-12-18T13:44:24;-3275.90;80.30
63445;DHT22;49573;47.682;9.170;2022-12-18T13:47:27;-3276.00;80.50
63445;DHT22;49573;47.682;9.170;2022-12-18T13:50:22;-3276.10;80.90
63445;DHT22;49573;47.682;9.170;2022-12-18T13:53:14;-3276.00;80.70
63445;DHT22;49573;47.682;9.170;2022-12-18T13:56:04;-3276.10;80.70
63445;DHT22;49573;47.682;9.170;2022-12-18T13:59:10;-3276.10;80.30
63445;DHT22;49573;47.682;9.170;2022-12-18T14:02:00;-3275.90;80.70
63445;DHT22;49573;47.682;9.170;2022-12-18T14:04:47;-3275.90;80.90
63445;DHT22;49573;47.682;9.170;2022-12-18T14:07:33;-3276.00;80.70
63445;DHT22;49573;47.682;9.170;2022-12-18T14:10:19;-3276.00;80.40
63445;DHT22;49573;47.682;9.170;2022-12-18T14:13:08;-3275.90;80.70
63445;DHT22;49573;47.682;9.170;2022-12-18T14:15:56;-3275.90;80.70
63445;DHT22;49573;47.682;9.170;2022-12-18T14:18:45;-3275.80;80.80
63445;DHT22;49573;47.682;9.170;2022-12-18T14:21:32;-3275.80;80.90
63445;DHT22;49573;47.682;9.170;2022-12-18T14:24:21;-3275.90;81.10
63445;DHT22;49573;47.682;9.170;2022-12-18T14:27:20;-3275.90;81.20
63445;DHT22;49573;47.682;9.170;2022-12-18T14:30:23;-3275.90;81.30
63445;DHT22;49573;47.682;9.170;2022-12-18T14:33:12;-3275.90;81.60
63445;DHT22;49573;47.682;9.170;2022-12-18T14:36:02;-3275.90;81.40
63445;DHT22;49573;47.682;9.170;2022-12-18T14:38:50;-3275.90;81.30
63445;DHT22;49573;47.682;9.170;2022-12-18T14:41:36;-3275.90;81.20
63445;DHT22;49573;47.682;9.170;2022-12-18T14:44:22;-3275.90;81.20
63445;DHT22;49573;47.682;9.170;2022-12-18T14:47:14;-3275.80;81.60
63445;DHT22;49573;47.682;9.170;2022-12-18T14:50:00;-3275.80;81.30
63445;DHT22;49573;47.682;9.170;2022-12-18T14:52:48;-3275.80;81.70
63445;DHT22;49573;47.682;9.170;2022-12-18T14:55:35;-3275.70;81.80
63445;DHT22;49573;47.682;9.170;2022-12-18T14:58:21;-3275.90;81.80
63445;DHT22;49573;47.682;9.170;2022-12-18T15:01:08;-3275.70;81.60
63445;DHT22;49573;47.682;9.170;2022-12-18T15:03:55;-3275.70;81.80
63445;DHT22;49573;47.682;9.170;2022-12-18T15:06:41;-3275.70;81.90
63445;DHT22;49573;47.682;9.170;2022-12-18T15:09:30;-3275.70;82.00
63445;DHT22;49573;47.682;9.170;2022-12-18T15:12:25;-3275.70;82.00
63445;DHT22;49573;47.682;9.170;2022-12-18T15:15:45;-3275.90;82.30
63445;DHT22;49573;47.682;9.170;2022-12-18T15:18:33;-3275.70;81.80
63445;DHT22;49573;47.682;9.170;2022-12-18T15:21:21;-3275.60;82.00
63445;DHT22;49573;47.682;9.170;2022-12-18T15:24:16;-3275.70;82.40
63445;DHT22;49573;47.682;9.170;2022-12-18T15:27:23;-3275.70;82.30
63445;DHT22;49573;47.682;9.170;2022-12-18T15:30:20;-3275.60;82.10
63445;DHT22;49573;47.682;9.170;2022-12-18T15:33:24;-3275.60;82.30
63445;DHT22;49573;47.682;9.170;2022-12-18T15:36:12;-3275.60;82.50
63445;DHT22;49573;47.682;9.170;2022-12-18T15:38:59;-3275.40;82.50
63445;DHT22;49573;47.682;9.170;2022-12-18T15:41:45;-3275.50;82.60
63445;DHT22;49573;47.682;9.170;2022-12-18T15:44:51;-3275.50;82.40
63445;DHT22;49573;47.682;9.170;2022-12-18T15:47:37;-3275.40;82.80
63445;DHT22;49573;47.682;9.170;2022-12-18T15:50:23;-3275.60;82.90
63445;DHT22;49573;47.682;9.170;2022-12-18T15:53:09;-3275.50;82.40
63445;DHT22;49573;47.682;9.170;2022-12-18T15:55:55;-3275.60;82.50
63445;DHT22;49573;47.682;9.170;2022-12-18T15:59:04;-3275.70;82.40
63445;DHT22;49573;47.682;9.170;2022-12-18T16:01:54;-3275.60;82.30
63445;DHT22;49573;47.682;9.170;2022-12-18T16:04:41;-3275.60;82.40
63445;DHT22;49573;47.682;9.170;2022-12-18T16:07:27;-3275.60;82.70
63445;DHT22;49573;47.682;9.170;2022-12-18T16:10:14;-3275.60;82.90
63445;DHT22;49573;47.682;9.170;2022-12-18T16:13:00;-3275.60;82.80
63445;DHT22;49573;47.682;9.170;2022-12-18T16:15:46;-3275.60;83.00
63445;DHT22;49573;47.682;9.170;2022-12-18T16:18:33;-3275.60;82.90
63445;DHT22;49573;47.682;9.170;2022-12-18T16:21:19;-3275.60;83.00
63445;DHT22;49573;47.682;9.170;2022-12-18T16:24:08;-3275.60;82.80
63445;DHT22;49573;47.682;9.170;2022-12-18T16:26:56;-3275.60;83.30
63445;DHT22;49573;47.682;9.170;2022-12-18T16:29:43;-3275.80;83.80
63445;DHT22;49573;47.682;9.170;2022-12-18T16:32:29;-3275.70;83.30
63445;DHT22;49573;47.682;9.170;2022-12-18T16:35:17;-3275.80;82.80
63445;DHT22;49573;47.682;9.170;2022-12-18T16:38:03;-3275.70;82.60
63445;DHT22;49573;47.682;9.170;2022-12-18T16:40:49;-3275.70;82.60
63445;DHT22;49573;47.682;9.170;2022-12-18T16:43:54;-3275.90;83.20
63445;DHT22;49573;47.682;9.170;2022-12-18T16:46:40;-3275.80;82.40
63445;DHT22;49573;47.682;9.170;2022-12-18T16:49:29;-3275.90;83.00
63445;DHT22;49573;47.682;9.170;2022-12-18T16:52:16;-3275.90;82.80
63445;DHT22;49573;47.682;9.170;2022-12-18T16:55:03;-3275.80;82.60
63445;DHT22;49573;47.682;9.170;2022-12-18T16:57:49;-3276.00;83.30
63445;DHT22;49573;47.682;9.170;2022-12-18T17:00:37;-3276.10;83.50
63445;DHT22;49573;47.682;9.170;2022-12-18T17:03:23;-3276.20;83.80
63445;DHT22;49573;47.682;9.170;2022-12-18T17:06:09;-3276.20;82.50